createdAt,value
2019-04-16T00:02:12.819Z,80.67
2019-04-16T00:05:02.555Z,81.10
2019-04-16T00:07:47.697Z,80.96
2019-04-16T00:10:25.128Z,81.15
2019-04-16T00:13:11.951Z,81.41
2019-04-16T00:15:42.480Z,81.84
2019-04-16T00:18:12.779Z,81.67
2019-04-16T00:21:00.729Z,81.67
2019-04-16T00:23:42.169Z,81.84
2019-04-16T00:26:12.947Z,82.05
2019-04-16T00:28:43.134Z,82.32
2019-04-16T00:31:13.453Z,82.55
2019-04-16T00:33:43.642Z,82.67
2019-04-16T00:36:15.420Z,82.68
2019-04-16T00:38:45.620Z,82.60
2019-04-16T00:41:15.938Z,82.65
2019-04-16T00:43:46.236Z,82.34
2019-04-16T00:46:17.542Z,82.44
2019-04-16T00:48:47.669Z,82.45
2019-04-16T00:51:18.006Z,82.61
2019-04-16T00:53:48.208Z,82.44
2019-04-16T00:56:18.384Z,82.51
2019-04-16T00:58:49.412Z,82.79
2019-04-16T01:01:21.011Z,82.86
2019-04-16T01:03:51.469Z,83.06
2019-04-16T01:06:21.789Z,82.99
2019-04-16T01:08:54.991Z,82.85
2019-04-16T01:11:24.197Z,83.11
2019-04-16T01:13:55.736Z,83.25
2019-04-16T01:16:26.436Z,82.95
2019-04-16T01:18:57.782Z,83.10
2019-04-16T01:21:28.066Z,83.03
2019-04-16T01:23:58.207Z,83.10
2019-04-16T01:26:28.432Z,83.07
2019-04-16T01:29:10.702Z,83.04
2019-04-16T01:32:09.899Z,83.19
2019-04-16T01:34:56.724Z,83.23
2019-04-16T01:37:43.244Z,83.25
2019-04-16T01:40:18.443Z,83.50
2019-04-16T01:42:47.303Z,83.92
2019-04-16T01:45:17.747Z,83.94
2019-04-16T01:47:48.050Z,84.00
2019-04-16T01:50:18.175Z,84.23
2019-04-16T01:52:50.302Z,84.55
2019-04-16T01:55:20.424Z,84.71
2019-04-16T01:57:50.592Z,84.69
2019-04-16T02:00:20.968Z,84.83
2019-04-16T02:02:51.113Z,84.83
2019-04-16T02:05:23.118Z,84.60
2019-04-16T02:07:53.478Z,84.69
2019-04-16T02:10:24.279Z,85.02
2019-04-16T02:12:54.514Z,84.55
2019-04-16T02:15:24.714Z,84.56
2019-04-16T02:17:55.414Z,84.97
2019-04-16T02:20:27.133Z,85.18
2019-04-16T02:22:57.307Z,85.29
2019-04-16T02:25:27.640Z,85.43
2019-04-16T02:27:57.958Z,85.68
2019-04-16T02:30:28.223Z,85.89
2019-04-16T02:32:58.329Z,85.84
2019-04-16T02:35:28.516Z,85.79
2019-04-16T02:37:58.683Z,86.06
2019-04-16T02:40:28.814Z,86.30
2019-04-16T02:43:04.215Z,86.24
2019-04-16T02:45:30.915Z,86.27
2019-04-16T02:48:01.323Z,86.24
2019-04-16T02:50:38.545Z,86.25
2019-04-16T02:53:33.589Z,86.30
2019-04-16T02:56:29.218Z,86.22
2019-04-16T02:59:11.764Z,86.42
2019-04-16T03:01:56.350Z,86.21
2019-04-16T03:04:30.464Z,86.74
2019-04-16T03:07:03.237Z,86.64
2019-04-16T03:09:32.847Z,86.72
2019-04-16T03:12:03.094Z,86.65
2019-04-16T03:14:33.252Z,86.83
2019-04-16T03:17:21.335Z,86.88
2019-04-16T03:19:52.590Z,86.70
2019-04-16T03:22:22.981Z,86.57
2019-04-16T03:24:53.209Z,86.82
2019-04-16T03:27:23.586Z,86.87
2019-04-16T03:29:53.750Z,86.88
2019-04-16T03:32:23.955Z,87.30
2019-04-16T03:34:54.184Z,87.44
2019-04-16T03:37:24.396Z,88.05
2019-04-16T03:39:54.527Z,88.05
2019-04-16T03:42:27.264Z,87.78
2019-04-16T03:44:57.705Z,87.30
2019-04-16T03:47:28.155Z,87.09
2019-04-16T03:49:59.401Z,86.84
2019-04-16T03:52:30.506Z,86.70
2019-04-16T03:55:00.644Z,86.74
2019-04-16T03:57:33.279Z,86.89
2019-04-16T04:00:02.913Z,87.11
2019-04-16T04:02:33.972Z,87.16
2019-04-16T04:05:06.860Z,87.25
2019-04-16T04:07:36.476Z,87.97
2019-04-16T04:10:07.700Z,88.10
2019-04-16T04:12:38.055Z,88.18
2019-04-16T04:15:08.971Z,88.10
2019-04-16T04:17:39.602Z,88.00
2019-04-16T04:20:11.135Z,87.76
2019-04-16T04:22:41.445Z,87.77
2019-04-16T04:25:11.771Z,87.95
2019-04-16T04:27:43.666Z,87.98
2019-04-16T04:30:16.660Z,87.75
2019-04-16T04:32:47.866Z,87.51
2019-04-16T04:35:21.791Z,87.68
2019-04-16T04:37:50.496Z,87.87
2019-04-16T04:40:21.031Z,87.81
2019-04-16T04:42:51.250Z,87.55
2019-04-16T04:45:21.534Z,87.60
2019-04-16T04:47:52.380Z,87.79
2019-04-16T04:50:23.388Z,87.96
2019-04-16T04:52:53.640Z,87.96
2019-04-16T04:55:26.914Z,87.74
2019-04-16T04:57:56.193Z,87.23
2019-04-16T05:00:26.415Z,86.78
2019-04-16T05:02:56.844Z,86.59
2019-04-16T05:05:40.979Z,86.20
2019-04-16T05:08:11.479Z,85.43
2019-04-16T05:10:43.248Z,84.17
2019-04-16T05:13:13.710Z,83.44
2019-04-16T05:15:43.860Z,83.04
2019-04-16T05:18:14.253Z,82.26
2019-04-16T05:20:47.010Z,80.43
2019-04-16T05:23:16.395Z,78.86
2019-04-16T05:25:46.925Z,76.35
2019-04-16T05:28:17.148Z,76.47
2019-04-16T05:30:51.858Z,75.56
2019-04-16T05:33:19.465Z,74.36
2019-04-16T05:35:49.848Z,74.20
2019-04-16T05:38:23.554Z,73.55
2019-04-16T05:40:53.183Z,72.32
2019-04-16T05:43:23.507Z,72.63
2019-04-16T05:45:53.670Z,72.96
2019-04-16T05:48:24.278Z,73.22
2019-04-16T05:50:59.761Z,73.57
2019-04-16T05:53:27.575Z,72.01
2019-04-16T05:56:14.356Z,69.48
2019-04-16T05:58:44.564Z,67.87
2019-04-16T06:01:34.004Z,65.63
2019-04-16T06:04:04.462Z,65.47
2019-04-16T06:06:34.687Z,66.77
2019-04-16T06:09:11.855Z,66.36
2019-04-16T06:11:39.862Z,64.43
2019-04-16T06:14:26.271Z,63.03
2019-04-16T06:17:15.268Z,61.44
2019-04-16T06:20:07.923Z,59.93
2019-04-16T06:22:47.123Z,58.62
2019-04-16T06:25:45.266Z,57.93
2019-04-16T06:28:43.801Z,57.37
2019-04-16T06:31:39.189Z,54.47
2019-04-16T06:34:31.492Z,54.45
2019-04-16T06:37:27.161Z,52.68
2019-04-16T06:40:06.686Z,52.43
2019-04-16T06:43:07.959Z,51.42
2019-04-16T06:45:46.504Z,51.32
2019-04-16T06:48:22.255Z,48.85
2019-04-16T06:51:12.648Z,48.53
2019-04-16T06:54:04.936Z,47.71
2019-04-16T06:56:52.306Z,45.85
2019-04-16T06:59:53.658Z,44.90
2019-04-16T07:02:37.604Z,44.09
2019-04-16T07:05:16.031Z,44.66
2019-04-16T07:08:00.899Z,44.38
2019-04-16T07:10:44.375Z,43.87
2019-04-16T07:13:10.276Z,43.72
2019-04-16T07:15:39.145Z,43.79
2019-04-16T07:18:09.570Z,42.38
2019-04-16T07:20:42.318Z,40.96
2019-04-16T07:23:13.428Z,40.94
2019-04-16T07:25:44.924Z,40.05
2019-04-16T07:28:38.947Z,38.42
2019-04-16T07:31:31.769Z,38.66
2019-04-16T07:34:03.685Z,36.21
2019-04-16T07:36:56.636Z,35.30
2019-04-16T07:39:47.937Z,35.22
2019-04-16T07:42:50.999Z,33.30
2019-04-16T07:45:25.423Z,33.49
2019-04-16T07:48:23.848Z,32.77
2019-04-16T07:51:16.464Z,32.16
2019-04-16T07:54:04.266Z,31.34
2019-04-16T07:56:36.513Z,31.56
2019-04-16T07:59:06.976Z,30.64
2019-04-16T08:01:37.244Z,30.19
2019-04-16T08:04:08.007Z,29.03
2019-04-16T08:06:38.501Z,28.49
2019-04-16T08:09:10.427Z,28.38
2019-04-16T08:11:43.729Z,27.94
2019-04-16T08:14:15.770Z,27.25
2019-04-16T08:16:48.276Z,26.11
2019-04-16T08:19:18.725Z,26.24
2019-04-16T08:21:49.227Z,26.47
2019-04-16T08:24:25.519Z,25.36
2019-04-16T08:26:55.834Z,25.42
2019-04-16T08:29:26.704Z,24.87
2019-04-16T08:31:57.256Z,25.11
2019-04-16T08:34:27.806Z,24.50
2019-04-16T08:36:58.343Z,24.15
2019-04-16T08:39:28.720Z,22.69
2019-04-16T08:41:59.079Z,22.81
2019-04-16T08:44:29.878Z,22.75
2019-04-16T08:47:00.201Z,22.40
2019-04-16T08:49:33.388Z,22.31
2019-04-16T08:52:03.812Z,21.85
2019-04-16T08:54:34.309Z,21.49
2019-04-16T08:57:04.861Z,20.64
2019-04-16T08:59:35.379Z,20.42
2019-04-16T09:02:05.779Z,20.51
2019-04-16T09:04:36.391Z,20.33
2019-04-16T09:07:11.945Z,20.10
2019-04-16T09:09:57.127Z,19.92
2019-04-16T09:12:26.608Z,20.62
2019-04-16T09:14:57.038Z,20.93
2019-04-16T09:17:39.586Z,20.44
2019-04-16T09:20:12.705Z,20.90
2019-04-16T09:22:49.350Z,20.66
2019-04-16T09:25:32.944Z,19.78
2019-04-16T09:28:25.788Z,20.09
2019-04-16T09:31:08.273Z,19.21
2019-04-16T09:34:05.608Z,18.50
2019-04-16T09:37:10.106Z,17.60
2019-04-16T09:40:15.531Z,18.27
2019-04-16T09:42:35.710Z,16.93
2019-04-16T09:45:06.858Z,16.21
2019-04-16T09:47:37.150Z,14.84
2019-04-16T09:50:11.045Z,14.19
2019-04-16T09:52:39.691Z,15.11
2019-04-16T09:55:24.115Z,14.21
2019-04-16T09:57:54.917Z,14.68
2019-04-16T10:00:30.799Z,14.15
2019-04-16T10:03:10.166Z,14.36
2019-04-16T10:05:40.462Z,14.42
2019-04-16T10:08:12.631Z,14.70
2019-04-16T10:10:42.974Z,15.74
2019-04-16T10:13:13.153Z,16.61
2019-04-16T10:15:43.424Z,15.75
2019-04-16T10:18:13.688Z,17.11
2019-04-16T10:20:43.900Z,17.39
2019-04-16T10:23:20.927Z,16.65
2019-04-16T10:25:52.341Z,15.72
2019-04-16T10:28:29.641Z,15.71
2019-04-16T10:31:02.825Z,15.10
2019-04-16T10:33:33.214Z,13.51
2019-04-16T10:36:04.920Z,13.30
2019-04-16T10:38:45.703Z,13.58
2019-04-16T10:41:41.738Z,12.44
2019-04-16T10:44:29.697Z,12.81
2019-04-16T10:47:19.973Z,12.66
2019-04-16T10:50:08.850Z,11.60
2019-04-16T10:53:07.484Z,11.82
2019-04-16T10:55:55.403Z,12.16
2019-04-16T10:58:44.648Z,14.90
2019-04-16T11:01:45.743Z,14.47
2019-04-16T11:04:36.041Z,13.24
2019-04-16T11:15:03.516Z,10.61
2019-04-16T11:17:34.400Z,10.85
2019-04-16T11:20:06.168Z,10.62
2019-04-16T11:22:36.678Z,10.65
2019-04-16T11:25:07.925Z,10.41
2019-04-16T11:27:38.163Z,9.84
2019-04-16T11:30:12.376Z,10.02
2019-04-16T11:32:42.680Z,10.40
2019-04-16T11:35:17.364Z,11.92
2019-04-16T11:37:46.067Z,11.80
2019-04-16T11:40:16.819Z,10.47
2019-04-16T11:42:47.444Z,9.77
2019-04-16T11:45:19.021Z,9.42
2019-04-16T11:47:49.444Z,10.01
2019-04-16T11:50:19.895Z,9.87
2019-04-16T11:52:50.149Z,10.36
2019-04-16T11:55:20.435Z,10.63
2019-04-16T11:57:50.701Z,10.63
2019-04-16T12:00:28.595Z,10.48
2019-04-16T12:03:07.211Z,11.03
2019-04-16T12:05:51.913Z,10.95
2019-04-16T12:08:56.216Z,10.23
2019-04-16T12:11:45.811Z,10.82
2019-04-16T12:14:34.997Z,12.36
2019-04-16T12:17:11.669Z,12.06
2019-04-16T12:20:09.722Z,11.99
2019-04-16T12:23:02.194Z,11.09
2019-04-16T12:25:39.447Z,11.26
2019-04-16T12:28:28.544Z,10.43
2019-04-16T12:31:32.921Z,10.06
2019-04-16T12:34:10.230Z,9.38
2019-04-16T12:37:15.216Z,9.61
2019-04-16T12:40:23.029Z,10.45
2019-04-16T12:43:18.547Z,10.58
2019-04-16T12:45:56.876Z,14.73
2019-04-16T12:48:44.844Z,14.85
2019-04-16T12:51:19.935Z,14.84
2019-04-16T12:54:08.432Z,16.57
2019-04-16T12:57:07.063Z,16.74
2019-04-16T12:59:59.587Z,17.09
2019-04-16T13:02:54.647Z,17.55
2019-04-16T13:05:44.697Z,19.04
2019-04-16T13:08:33.158Z,18.76
2019-04-16T13:11:22.308Z,19.27
2019-04-16T13:14:13.593Z,20.43
2019-04-16T13:17:01.768Z,21.10
2019-04-16T13:19:38.920Z,21.05
2019-04-16T13:22:08.846Z,21.74
2019-04-16T13:24:48.046Z,22.11
2019-04-16T13:27:23.856Z,23.34
2019-04-16T13:29:53.336Z,28.40
2019-04-16T13:32:23.511Z,29.13
2019-04-16T13:34:53.966Z,30.02
2019-04-16T13:37:24.640Z,31.41
2019-04-16T13:40:02.409Z,28.52
2019-04-16T13:42:33.332Z,26.67
2019-04-16T13:45:18.208Z,27.64
2019-04-16T13:47:47.591Z,26.13
2019-04-16T13:50:25.271Z,25.78
2019-04-16T13:53:04.890Z,27.25
2019-04-16T13:55:49.412Z,27.65
2019-04-16T13:58:43.307Z,27.76
2019-04-16T14:01:20.430Z,28.20
2019-04-16T14:03:50.799Z,28.45
2019-04-16T14:06:21.357Z,28.77
2019-04-16T14:08:53.431Z,29.39
2019-04-16T14:11:23.695Z,29.75
2019-04-16T14:13:54.189Z,29.94
2019-04-16T14:16:26.008Z,29.98
2019-04-16T14:18:56.669Z,30.11
2019-04-16T14:21:27.179Z,30.39
2019-04-16T14:23:57.502Z,30.21
2019-04-16T14:26:28.051Z,32.66
2019-04-16T14:28:58.740Z,32.78
2019-04-16T14:31:29.549Z,32.76
2019-04-16T14:34:14.064Z,33.05
2019-04-16T14:36:44.806Z,34.58
2019-04-16T14:39:40.202Z,33.26
2019-04-16T14:42:10.502Z,34.09
2019-04-16T14:44:45.045Z,34.98
2019-04-16T14:47:15.568Z,35.48
2019-04-16T14:49:47.787Z,37.91
2019-04-16T14:52:18.348Z,37.92
2019-04-16T14:55:25.838Z,40.42
2019-04-16T14:58:16.247Z,42.84
2019-04-16T15:01:04.735Z,42.56
2019-04-16T15:03:52.668Z,44.04
2019-04-16T15:06:43.317Z,44.27
2019-04-16T15:09:31.437Z,44.33
2019-04-16T15:12:20.582Z,44.60
2019-04-16T15:15:12.110Z,44.99
2019-04-16T15:17:48.396Z,45.15
2019-04-16T15:20:40.829Z,46.33
2019-04-16T15:23:28.882Z,46.60
2019-04-16T15:26:20.829Z,47.85
2019-04-16T15:28:59.607Z,50.15
2019-04-16T15:32:04.472Z,49.22
2019-04-16T15:34:41.971Z,49.50
2019-04-16T15:37:27.570Z,50.48
2019-04-16T15:40:06.935Z,52.84
2019-04-16T15:42:50.574Z,53.68
2019-04-16T15:45:43.768Z,55.41
2019-04-16T15:48:33.218Z,54.48
2019-04-16T15:51:23.282Z,54.95
2019-04-16T15:54:09.163Z,55.36
2019-04-16T15:56:43.404Z,55.97
2019-04-16T15:59:17.718Z,57.33
2019-04-16T16:02:11.862Z,58.34
2019-04-16T16:04:46.553Z,58.35
2019-04-16T16:07:23.976Z,58.40
2019-04-16T16:10:12.720Z,58.91
2019-04-16T16:12:41.218Z,59.20
2019-04-16T16:15:12.069Z,61.43
2019-04-16T16:17:42.517Z,62.65
2019-04-16T16:20:13.491Z,65.01
2019-04-16T16:22:43.923Z,66.83
2019-04-16T16:25:14.323Z,66.72
2019-04-16T16:27:47.029Z,67.80
2019-04-16T16:30:16.762Z,68.57
2019-04-16T16:32:47.041Z,68.64
2019-04-16T16:35:18.111Z,68.31
2019-04-16T16:37:48.431Z,68.54
2019-04-16T16:40:19.111Z,71.49
2019-04-16T16:42:49.587Z,72.62
2019-04-16T16:45:21.798Z,73.71
2019-04-16T16:47:52.038Z,74.55
2019-04-16T16:50:22.635Z,75.31
2019-04-16T16:53:15.235Z,76.03
2019-04-16T16:55:48.326Z,75.09
2019-04-16T16:58:36.216Z,74.68
2019-04-16T17:01:24.233Z,75.20
2019-04-16T17:04:13.586Z,74.80
2019-04-16T17:06:44.207Z,75.08
2019-04-16T17:09:31.980Z,75.43
2019-04-16T17:12:02.414Z,75.55
2019-04-16T17:14:36.467Z,75.81
2019-04-16T17:17:12.878Z,76.89
2019-04-16T17:19:37.428Z,76.77
2019-04-16T17:22:07.843Z,76.72
2019-04-16T17:24:38.262Z,77.09
2019-04-16T17:27:09.211Z,77.22
2019-04-16T17:29:39.550Z,77.53
2019-04-16T17:32:09.855Z,77.52
2019-04-16T17:34:40.538Z,77.43
2019-04-16T17:37:11.032Z,77.30
2019-04-16T17:39:52.853Z,77.34
2019-04-16T17:42:37.608Z,77.47
2019-04-16T17:45:28.308Z,77.43
2019-04-16T17:48:18.127Z,78.42
2019-04-16T17:51:07.905Z,79.13
2019-04-16T17:53:50.303Z,79.41
2019-04-16T17:56:38.475Z,79.92
2019-04-16T17:59:12.227Z,78.83
2019-04-16T18:02:04.514Z,78.43
2019-04-16T18:05:02.942Z,78.88
2019-04-16T18:07:51.227Z,78.92
2019-04-16T18:10:34.576Z,79.40
2019-04-16T18:13:13.865Z,79.46
2019-04-16T18:16:08.065Z,79.46
2019-04-16T18:18:49.347Z,79.72
2019-04-16T18:21:41.886Z,79.97
2019-04-16T18:24:37.269Z,80.49
2019-04-16T18:27:33.478Z,80.43
2019-04-16T18:30:38.450Z,80.33
2019-04-16T18:33:22.759Z,80.55
2019-04-16T18:36:17.061Z,80.20
2019-04-16T18:39:06.447Z,80.24
2019-04-16T18:41:42.665Z,80.53
2019-04-16T18:44:53.871Z,81.17
2019-04-16T18:47:45.740Z,80.94
2019-04-16T18:50:23.587Z,80.41
2019-04-16T18:52:52.187Z,80.02
2019-04-16T18:55:22.793Z,79.06
2019-04-16T18:57:53.472Z,77.71
2019-04-16T19:00:46.062Z,76.49
2019-04-16T19:03:16.657Z,77.26
2019-04-16T19:05:47.401Z,77.92
2019-04-16T19:08:17.851Z,78.87
2019-04-16T19:10:51.363Z,78.95
2019-04-16T19:13:21.859Z,79.11
2019-04-16T19:15:53.216Z,79.45
2019-04-16T19:18:25.288Z,80.30
2019-04-16T19:20:55.912Z,79.95
2019-04-16T19:23:26.358Z,79.57
2019-04-16T19:25:56.840Z,79.67
2019-04-16T19:28:27.972Z,78.69
2019-04-16T19:30:59.703Z,78.78
2019-04-16T19:33:34.354Z,79.24
2019-04-16T19:36:03.037Z,79.40
2019-04-16T19:38:35.798Z,79.41
2019-04-16T19:41:06.003Z,80.18
2019-04-16T19:43:37.132Z,79.81
2019-04-16T19:46:07.768Z,79.89
2019-04-16T19:48:38.201Z,80.75
2019-04-16T19:51:09.041Z,80.17
2019-04-16T19:53:39.932Z,80.47
2019-04-16T19:56:10.847Z,80.82
2019-04-16T19:58:44.275Z,79.88
2019-04-16T20:01:14.286Z,79.32
2019-04-16T20:03:44.607Z,79.07
2019-04-16T20:06:15.343Z,79.19
2019-04-16T20:08:45.970Z,78.88
2019-04-16T20:11:20.457Z,78.78
2019-04-16T20:13:49.161Z,79.36
2019-04-16T20:16:19.451Z,79.40
2019-04-16T20:18:51.496Z,79.99
2019-04-16T20:21:22.090Z,80.36
2019-04-16T20:23:53.120Z,81.06
2019-04-16T20:26:23.851Z,81.65
2019-04-16T20:28:56.761Z,81.86
2019-04-16T20:31:27.232Z,82.13
2019-04-16T20:33:57.496Z,82.49
2019-04-16T20:36:27.871Z,82.57
2019-04-16T20:38:58.628Z,82.26
2019-04-16T20:41:28.883Z,82.37
2019-04-16T20:43:59.369Z,82.61
2019-04-16T20:46:29.811Z,83.31
2019-04-16T20:49:09.632Z,84.21
2019-04-16T20:51:32.633Z,84.43
2019-04-16T20:54:12.831Z,83.68
2019-04-16T20:56:41.193Z,83.36
2019-04-16T20:59:11.873Z,83.68
2019-04-16T21:01:42.204Z,83.51
2019-04-16T21:04:12.642Z,83.16
2019-04-16T21:06:42.990Z,83.42
2019-04-16T21:09:13.710Z,84.57
2019-04-16T21:11:44.068Z,83.89
2019-04-16T21:14:14.461Z,83.87
2019-04-16T21:16:44.967Z,83.76
2019-04-16T21:19:23.012Z,83.89
2019-04-16T21:21:47.624Z,84.32
2019-04-16T21:24:18.019Z,84.69
2019-04-16T21:26:51.126Z,85.27
2019-04-16T21:29:33.344Z,85.13
2019-04-16T21:32:09.881Z,84.39
2019-04-16T21:34:47.204Z,83.89
2019-04-16T21:37:35.687Z,83.90
2019-04-16T21:40:10.003Z,84.23
2019-04-16T21:42:41.604Z,84.58
2019-04-16T21:45:16.446Z,84.83
2019-04-16T21:47:47.637Z,84.81
2019-04-16T21:50:18.327Z,84.03
2019-04-16T21:52:48.887Z,83.69
2019-04-16T21:55:19.946Z,85.88
2019-04-16T21:57:50.204Z,85.43
2019-04-16T22:00:38.352Z,85.21
2019-04-16T22:03:11.707Z,84.95
2019-04-16T22:05:42.405Z,85.02
2019-04-16T22:08:13.300Z,85.10
2019-04-16T22:10:46.758Z,85.27
2019-04-16T22:13:19.346Z,85.46
2019-04-16T22:15:49.863Z,85.46
2019-04-16T22:18:20.325Z,85.55
2019-04-16T22:20:50.976Z,85.54
2019-04-16T22:23:21.283Z,85.49
2019-04-16T22:25:53.031Z,85.73
2019-04-16T22:28:23.512Z,85.80
2019-04-16T22:30:53.712Z,85.73
2019-04-16T22:33:24.013Z,85.62
2019-04-16T22:35:54.227Z,85.87
2019-04-16T22:38:25.175Z,86.30
2019-04-16T22:41:11.142Z,86.53
2019-04-16T22:44:00.539Z,86.75
2019-04-16T22:46:37.614Z,86.74
2019-04-16T22:49:08.022Z,86.52
2019-04-16T22:51:39.757Z,85.97
2019-04-16T22:54:10.367Z,85.73
2019-04-16T22:57:11.686Z,85.86
2019-04-16T22:59:41.847Z,86.13
2019-04-16T23:02:22.423Z,86.37
2019-04-16T23:04:54.936Z,86.37
2019-04-16T23:07:25.163Z,86.53
2019-04-16T23:09:55.523Z,86.77
2019-04-16T23:12:28.091Z,86.91
2019-04-16T23:14:57.628Z,87.08
2019-04-16T23:17:27.947Z,86.86
2019-04-16T23:19:58.230Z,86.68
2019-04-16T23:22:28.584Z,86.51
2019-04-16T23:24:58.784Z,86.49
2019-04-16T23:27:28.957Z,86.74
2019-04-16T23:29:59.141Z,87.18
2019-04-16T23:32:29.300Z,87.45
2019-04-16T23:34:59.588Z,87.81
2019-04-16T23:37:29.696Z,87.87
2019-04-16T23:39:59.891Z,88.17
2019-04-16T23:42:30.145Z,88.30
2019-04-16T23:45:22.497Z,88.57
2019-04-16T23:48:14.647Z,88.31
2019-04-16T23:50:50.572Z,88.47
2019-04-16T23:53:25.664Z,88.89
2019-04-16T23:56:24.022Z,89.14
2019-04-16T23:59:22.624Z,89.17
